Time;durP1;ratioP1;P1;durP2;ratioP2;P2;SDS_P1;SDS_P2;PMS_P1;PMS_P2;Temp;Humidity;BMP_temperature;BMP_pressure;BME280_temperature;BME280_humidity;BME280_pressure;Samples;Min_cycle;Max_cycle;Signal;HPM_P1;HPM_P2
2022/08/05 00:00:15;;;;;;;6.97;2.05;;;;;;;24.18;52.30;101371.84;5051417;28;20044;-64
2022/08/05 00:02:43;;;;;;;5.70;2.15;;;;;;;24.16;51.95;101374.91;5059633;28;20037;-64
2022/08/05 00:05:20;;;;;;;3.25;2.33;;;;;;;24.14;52.00;101374.38;5059233;28;20084;-64
2022/08/05 00:08:09;;;;;;;3.50;2.00;;;;;;;24.13;52.33;101374.69;5057244;28;20049;-64
2022/08/05 00:10:56;;;;;;;7.50;2.38;;;;;;;24.09;52.33;101370.91;5059212;28;20071;-64
2022/08/05 00:13:28;;;;;;;3.95;2.20;;;;;;;24.10;52.52;101378.03;5056946;28;20041;-64
2022/08/05 00:16:08;;;;;;;4.10;2.40;;;;;;;24.08;52.26;101370.09;5055260;28;20069;-64
2022/08/05 00:18:40;;;;;;;4.53;2.05;;;;;;;24.08;52.64;101380.25;5061894;28;20059;-64
2022/08/05 00:21:10;;;;;;;5.60;2.47;;;;;;;24.06;52.60;101385.25;5061970;28;20041;-63
2022/08/05 00:23:42;;;;;;;5.35;2.25;;;;;;;24.05;52.72;101375.38;5052040;28;20080;-64
2022/08/05 00:26:20;;;;;;;4.05;1.95;;;;;;;24.04;52.87;101374.56;5059030;28;20049;-63
2022/08/05 00:28:50;;;;;;;8.82;2.25;;;;;;;24.03;52.93;101383.91;5054513;28;20120;-64
2022/08/05 00:31:18;;;;;;;4.53;2.13;;;;;;;23.95;52.69;101371.66;5056759;28;20052;-65
2022/08/05 00:34:06;;;;;;;5.25;1.90;;;;;;;23.98;53.06;101382.06;5055486;28;20045;-64
2022/08/05 00:36:55;;;;;;;4.32;2.15;;;;;;;23.96;53.05;101387.03;5059547;28;20048;-64
2022/08/05 00:39:41;;;;;;;5.97;2.25;;;;;;;23.93;52.76;101386.81;5055360;28;20054;-65
2022/08/05 00:42:32;;;;;;;3.08;2.05;;;;;;;23.94;53.32;101386.50;5055816;28;20056;-65
2022/08/05 00:45:00;;;;;;;5.43;2.53;;;;;;;23.91;53.47;101381.63;5061561;28;20087;-64
2022/08/05 00:47:28;;;;;;;8.45;2.50;;;;;;;23.89;53.71;101381.09;5059028;28;20045;-64
2022/08/05 00:50:16;;;;;;;3.70;2.00;;;;;;;23.85;54.01;101371.81;5055336;28;20059;-64
2022/08/05 00:52:45;;;;;;;6.70;2.53;;;;;;;23.83;54.21;101365.81;5058379;28;20063;-64
2022/08/05 00:55:13;;;;;;;7.22;2.75;;;;;;;23.79;53.91;101362.03;5057628;28;20110;-65
2022/08/05 00:57:41;;;;;;;5.28;2.30;;;;;;;23.72;53.81;101347.06;5061693;28;20064;-64
2022/08/05 01:00:26;;;;;;;5.32;2.50;;;;;;;23.74;54.29;101375.84;5060408;28;20049;-64
2022/08/05 01:02:54;;;;;;;7.65;2.88;;;;;;;23.74;54.27;101380.50;5060805;28;20049;-64
2022/08/05 01:05:22;;;;;;;6.10;2.65;;;;;;;23.72;54.61;101377.25;5053525;28;20077;-64
2022/08/05 01:07:52;;;;;;;5.25;2.42;;;;;;;23.71;54.40;101384.66;5060783;28;20064;-64
2022/08/05 01:10:45;;;;;;;3.53;2.65;;;;;;;23.67;54.50;101400.09;5057217;28;20053;-64
2022/08/05 01:13:24;;;;;;;5.63;2.25;;;;;;;23.65;54.87;101418.78;5061917;28;21590;-64
2022/08/05 01:16:21;;;;;;;6.53;2.47;;;;;;;23.65;54.76;101427.03;5056096;28;20160;-64
2022/08/05 01:19:00;;;;;;;3.75;2.40;;;;;;;23.61;55.17;101440.50;5058127;28;20064;-64
2022/08/05 01:21:51;;;;;;;6.20;2.47;;;;;;;23.59;55.07;101447.41;5061597;28;20099;-64
2022/08/05 01:24:41;;;;;;;5.97;2.20;;;;;;;23.57;55.35;101455.13;5058323;28;20491;-64
2022/08/05 01:27:25;;;;;;;5.50;2.40;;;;;;;23.53;55.70;101457.59;5061923;28;20049;-64
2022/08/05 01:29:58;;;;;;;8.38;2.78;;;;;;;23.50;55.96;101460.13;5059614;28;20589;-64
2022/08/05 01:32:28;;;;;;;6.95;2.90;;;;;;;23.50;55.77;101463.69;5059467;28;20068;-64
2022/08/05 01:34:59;;;;;;;5.32;2.72;;;;;;;23.47;55.92;101461.53;5061165;28;20179;-64
2022/08/05 01:37:36;;;;;;;6.35;2.25;;;;;;;23.47;55.86;101447.81;5064416;28;20084;-64
2022/08/05 01:40:12;;;;;;;6.50;2.60;;;;;;;23.45;55.97;101460.19;5060500;28;20113;-64
2022/08/05 01:42:46;;;;;;;4.05;2.00;;;;;;;23.45;56.14;101465.66;5059540;28;20045;-64
2022/08/05 01:45:16;;;;;;;4.95;2.38;;;;;;;23.41;55.59;101470.91;5060318;28;20064;-63
2022/08/05 01:47:49;;;;;;;10.23;2.50;;;;;;;23.43;55.89;101481.59;5062112;28;20100;-64
2022/08/05 01:50:26;;;;;;;5.93;2.17;;;;;;;23.43;55.81;101467.88;5066444;28;20079;-63
2022/08/05 01:53:00;;;;;;;6.85;2.97;;;;;;;23.42;56.34;101447.03;5065040;28;20049;-63
2022/08/05 01:55:30;;;;;;;6.45;3.35;;;;;;;23.41;56.05;101416.06;5062951;28;20049;-63
2022/08/05 01:58:05;;;;;;;5.70;2.70;;;;;;;23.40;55.83;101389.72;5063770;28;20045;-63
2022/08/05 02:00:47;;;;;;;6.68;2.90;;;;;;;23.38;55.66;101400.19;5054451;28;20465;-63
2022/08/05 02:03:20;;;;;;;4.82;2.10;;;;;;;23.38;55.68;101402.91;5058883;28;20052;-63
2022/08/05 02:05:56;;;;;;;8.23;2.20;;;;;;;23.29;56.18;101380.81;5065862;28;20140;-63
2022/08/05 02:08:28;;;;;;;9.32;2.38;;;;;;;23.32;55.92;101380.22;5064599;28;20045;-63
2022/08/05 02:11:06;;;;;;;5.22;2.28;;;;;;;23.33;55.97;101381.88;5065464;28;20045;-63
2022/08/05 02:13:44;;;;;;;5.35;2.40;;;;;;;23.34;56.06;101379.94;5063844;28;20083;-63
2022/08/05 02:16:25;;;;;;;3.75;2.20;;;;;;;23.33;55.87;101411.22;5062823;28;20466;-63
2022/08/05 02:18:58;;;;;;;5.00;2.08;;;;;;;23.32;56.05;101423.31;5058428;28;20049;-64
2022/08/05 02:21:33;;;;;;;6.25;2.22;;;;;;;23.31;55.90;101421.66;5060117;28;20071;-64
2022/08/05 02:24:18;;;;;;;6.43;2.30;;;;;;;23.27;55.81;101421.44;5058408;28;20419;-64
2022/08/05 02:26:54;;;;;;;6.15;2.47;;;;;;;23.29;55.83;101432.13;5049395;28;20071;-64
2022/08/05 02:29:25;;;;;;;7.43;2.40;;;;;;;23.27;56.08;101437.91;5063158;28;20080;-63
2022/08/05 02:32:15;;;;;;;6.05;2.10;;;;;;;;;;5050628;28;20037;-65
2022/08/05 02:34:57;;;;;;;5.63;2.20;;;;;;;23.25;55.73;101429.13;5053486;28;20475;-64
2022/08/05 02:37:31;;;;;;;6.72;2.60;;;;;;;23.23;55.71;101414.91;5055798;28;20053;-64
2022/08/05 02:39:59;;;;;;;5.65;2.55;;;;;;;23.22;56.00;101426.97;5053345;28;20053;-64
2022/08/05 02:42:27;;;;;;;4.82;2.10;;;;;;;23.20;56.13;101429.19;5060404;28;20087;-63
2022/08/05 02:45:03;;;;;;;5.10;2.30;;;;;;;23.19;55.95;101434.97;5051491;28;20084;-63
2022/08/05 02:47:35;;;;;;;7.38;3.00;;;;;;;23.17;55.96;101418.81;5059995;28;20045;-64
2022/08/05 02:50:24;;;;;;;8.52;2.33;;;;;;;23.15;55.89;101409.25;5062119;28;20048;-64
2022/08/05 02:52:53;;;;;;;4.32;2.50;;;;;;;23.13;56.34;101404.06;5060511;28;20080;-63
2022/08/05 02:55:23;;;;;;;7.28;2.90;;;;;;;23.11;56.14;101410.94;5059782;28;20053;-64
2022/08/05 02:58:14;;;;;;;6.05;2.72;;;;;;;23.10;56.29;101409.31;5060648;28;20561;-63
2022/08/05 03:00:43;;;;;;;5.30;2.75;;;;;;;23.08;56.60;101390.41;5062761;28;20056;-64
2022/08/05 03:03:16;;;;;;;8.80;2.17;;;;;;;23.08;56.35;101395.88;5059301;28;20055;-64
2022/08/05 03:05:45;;;;;;;6.70;2.15;;;;;;;23.05;56.41;101393.72;5064167;28;20056;-63
2022/08/05 03:08:33;;;;;;;8.85;2.22;;;;;;;23.04;56.47;101397.59;5058772;28;20064;-64
2022/08/05 03:11:01;;;;;;;3.90;2.25;;;;;;;23.01;56.34;101398.16;5063512;28;20084;-64
2022/08/05 03:13:49;;;;;;;4.57;2.20;;;;;;;22.99;56.26;101412.16;5056347;28;20052;-64
2022/08/05 03:16:30;;;;;;;6.45;2.55;;;;;;;22.98;56.50;101415.19;5064185;28;20048;-64
2022/08/05 03:19:00;;;;;;;4.72;2.72;;;;;;;22.96;56.39;101412.75;5057458;28;20037;-64
2022/08/05 03:21:43;;;;;;;6.88;2.30;;;;;;;22.94;56.30;101431.41;5059900;28;20183;-64
2022/08/05 03:24:17;;;;;;;6.80;2.58;;;;;;;22.93;56.87;101438.00;5059426;28;20064;-64
2022/08/05 03:26:57;;;;;;;8.45;2.45;;;;;;;22.91;57.00;101418.28;5063012;28;20044;-64
2022/08/05 03:29:26;;;;;;;3.33;2.03;;;;;;;22.90;56.90;101424.88;5060982;28;20060;-64
2022/08/05 03:32:14;;;;;;;9.05;2.90;;;;;;;22.89;57.32;101427.91;5055147;28;20060;-64
2022/08/05 03:34:44;;;;;;;5.90;2.33;;;;;;;22.87;57.42;101419.16;5058327;28;20140;-64
2022/08/05 03:37:18;;;;;;;10.75;2.97;;;;;;;22.84;57.27;101423.28;5052516;28;20287;-64
2022/08/05 03:39:54;;;;;;;7.80;2.78;;;;;;;22.82;57.57;101417.28;5061629;28;20056;-64
2022/08/05 03:42:26;;;;;;;5.20;2.28;;;;;;;22.80;57.59;101413.19;5064496;28;20628;-64
2022/08/05 03:44:55;;;;;;;4.93;2.33;;;;;;;22.74;57.26;101415.97;5062055;28;20052;-65
2022/08/05 03:47:23;;;;;;;4.43;2.47;;;;;;;22.81;57.41;101444.97;5063733;28;20059;-64
2022/08/05 03:49:58;;;;;;;5.40;2.47;;;;;;;22.79;57.70;101447.16;5063654;28;20067;-65
2022/08/05 03:52:31;;;;;;;9.13;2.75;;;;;;;22.80;57.40;101435.13;5059740;28;20076;-66
2022/08/05 03:55:26;;;;;;;4.43;2.08;;;;;;;22.78;57.70;101431.81;5061935;28;20085;-65
2022/08/05 03:58:17;;;;;;;5.72;2.60;;;;;;;22.77;57.43;101430.19;5063509;28;20059;-65
2022/08/05 04:00:46;;;;;;;5.82;2.22;;;;;;;22.77;57.64;101427.44;5061363;28;20104;-64
2022/08/05 04:03:21;;;;;;;5.60;2.40;;;;;;;22.76;57.49;101423.06;5064201;28;20149;-64
2022/08/05 04:05:58;;;;;;;3.70;2.30;;;;;;;22.74;57.15;101412.41;5061375;28;20053;-64
2022/08/05 04:08:28;;;;;;;5.80;2.33;;;;;;;22.72;57.14;101411.88;5062665;28;20053;-65
2022/08/05 04:11:06;;;;;;;7.97;2.35;;;;;;;22.70;57.48;101409.41;5056447;28;20080;-64
2022/08/05 04:13:38;;;;;;;6.65;2.55;;;;;;;22.70;57.65;101403.13;5063005;28;20053;-64
2022/08/05 04:16:20;;;;;;;6.20;2.78;;;;;;;22.68;57.56;101408.91;5052759;28;20490;-63
2022/08/05 04:18:59;;;;;;;7.63;2.83;;;;;;;22.68;57.55;101399.84;5059089;28;20105;-64
2022/08/05 04:21:28;;;;;;;4.28;2.78;;;;;;;22.60;57.46;101389.53;5054865;28;20199;-64
2022/08/05 04:24:16;;;;;;;6.07;2.20;;;;;;;22.66;57.38;101413.03;5055105;28;20053;-64
2022/08/05 04:26:49;;;;;;;5.63;2.50;;;;;;;22.65;57.29;101412.22;5062349;28;20076;-63
2022/08/05 04:29:17;;;;;;;7.00;2.72;;;;;;;22.64;57.53;101417.97;5045298;28;20465;-64
2022/08/05 04:31:46;;;;;;;5.70;2.63;;;;;;;22.63;57.58;101430.88;5062919;28;20052;-63
2022/08/05 04:34:16;;;;;;;6.18;2.67;;;;;;;22.62;57.34;101429.22;5053003;28;20319;-64
2022/08/05 04:37:02;;;;;;;7.97;2.35;;;;;;;22.62;57.71;101423.75;5051566;28;20053;-64
2022/08/05 04:39:32;;;;;;;9.10;2.70;;;;;;;22.61;57.23;101424.84;5048911;28;20044;-63
2022/08/05 04:42:02;;;;;;;4.93;2.58;;;;;;;22.59;57.34;101426.25;5048383;28;20139;-64
2022/08/05 04:44:30;;;;;;;5.72;2.38;;;;;;;22.58;57.50;101433.66;5049919;28;20045;-64
2022/08/05 04:46:58;;;;;;;6.63;2.92;;;;;;;22.57;57.48;101433.94;4704808;28;10000379;-66
2022/08/05 04:49:26;;;;;;;4.57;2.45;;;;;;;22.56;57.47;101435.03;5055055;28;20045;-65
2022/08/05 04:52:15;;;;;;;3.83;2.33;;;;;;;22.55;57.75;101436.16;5050580;28;20502;-66
2022/08/05 04:54:45;;;;;;;6.68;3.22;;;;;;;22.55;57.81;101433.41;5049536;28;20081;-66
2022/08/05 04:57:12;;;;;;;7.40;3.20;;;;;;;22.54;57.68;101440.00;5058163;28;20059;-66
2022/08/05 04:59:40;;;;;;;5.88;2.72;;;;;;;22.52;57.61;101434.84;5057355;28;20084;-66
2022/08/05 05:02:08;;;;;;;6.20;2.00;;;;;;;22.52;57.73;101443.06;5053029;28;20080;-66
2022/08/05 05:04:56;;;;;;;5.22;2.70;;;;;;;22.51;57.90;101440.59;5052578;28;20083;-64
2022/08/05 05:07:31;;;;;;;5.13;2.28;;;;;;;22.49;57.97;101435.41;5056539;28;20084;-64
2022/08/05 05:10:04;;;;;;;4.75;2.70;;;;;;;22.50;58.08;101449.91;5057841;28;20052;-64
2022/08/05 05:12:33;;;;;;;5.78;2.72;;;;;;;22.48;57.97;101436.50;5058556;28;20057;-65
2022/08/05 05:15:04;;;;;;;7.28;2.70;;;;;;;22.47;57.80;101429.41;5058751;28;20076;-65
2022/08/05 05:17:38;;;;;;;4.22;2.42;;;;;;;22.46;57.87;101432.41;5055272;28;20045;-66
2022/08/05 05:20:24;;;;;;;5.05;2.15;;;;;;;22.45;57.89;101437.09;5061050;28;20070;-66
2022/08/05 05:22:57;;;;;;;8.38;2.45;;;;;;;22.44;58.01;101440.09;5059490;28;20411;-67
2022/08/05 05:25:24;;;;;;;7.80;2.47;;;;;;;22.43;58.13;101457.66;5063070;28;20275;-66
2022/08/05 05:27:59;;;;;;;7.28;3.05;;;;;;;22.42;58.31;101456.00;5061433;28;20053;-65
2022/08/05 05:30:27;;;;;;;6.50;2.40;;;;;;;22.40;57.96;101457.13;5058798;28;20087;-66
2022/08/05 05:33:02;;;;;;;4.25;2.20;;;;;;;22.39;58.01;101465.63;5055015;28;20069;-66
2022/08/05 05:35:45;;;;;;;8.25;3.00;;;;;;;22.39;58.27;101474.66;5053047;28;20080;-65
2022/08/05 05:38:16;;;;;;;7.45;2.78;;;;;;;22.35;58.40;101457.16;5079986;28;20086;-65
2022/08/05 05:40:54;;;;;;;7.68;3.15;;;;;;;22.35;58.22;101465.38;5058000;28;20116;-65
2022/08/05 05:43:22;;;;;;;7.22;3.22;;;;;;;22.33;57.87;101462.09;5057573;28;20488;-65
2022/08/05 05:46:10;;;;;;;8.27;2.42;;;;;;;22.33;58.10;101470.31;5058139;28;20061;-67
2022/08/05 05:48:46;;;;;;;6.22;2.97;;;;;;;22.33;58.30;101467.59;5061344;28;20049;-66
2022/08/05 05:51:20;;;;;;;8.73;2.92;;;;;;;22.32;58.39;101467.88;5059551;28;20116;-65
2022/08/05 05:53:51;;;;;;;7.50;3.10;;;;;;;22.29;58.17;101463.78;5060510;28;20096;-66
2022/08/05 05:56:27;;;;;;;6.97;2.55;;;;;;;22.31;58.12;101474.44;5056958;28;20107;-64
2022/08/05 05:59:00;;;;;;;3.58;2.20;;;;;;;22.29;57.95;101473.91;5057206;28;20528;-65
2022/08/05 06:01:30;;;;;;;6.70;2.58;;;;;;;22.28;57.98;101480.50;5072342;28;20048;-67
2022/08/05 06:04:05;;;;;;;8.32;2.90;;;;;;;22.27;58.21;101485.16;5059001;28;20057;-67
2022/08/05 06:06:34;;;;;;;8.07;3.33;;;;;;;22.27;57.93;101484.34;5061419;28;20084;-66
2022/08/05 06:09:04;;;;;;;7.72;2.50;;;;;;;22.26;57.93;101469.81;5055524;28;20088;-65
2022/08/05 06:11:34;;;;;;;10.10;3.15;;;;;;;22.24;58.00;101480.25;5063879;28;20052;-67
2022/08/05 06:14:06;;;;;;;5.55;2.70;;;;;;;22.24;58.13;101484.91;5057447;28;20061;-66
2022/08/05 06:16:34;;;;;;;7.70;2.70;;;;;;;22.23;58.14;101481.34;5060005;28;20053;-71
2022/08/05 06:19:05;;;;;;;4.28;2.50;;;;;;;22.22;58.13;101485.19;5059554;28;20061;-67
2022/08/05 06:21:35;;;;;;;7.60;3.20;;;;;;;22.22;58.62;101487.94;5053769;28;20045;-68
2022/08/05 06:24:11;;;;;;;6.45;3.47;;;;;;;22.20;58.38;101490.13;5061220;28;20064;-67
2022/08/05 06:26:41;;;;;;;7.25;2.92;;;;;;;22.20;58.66;101486.56;5054243;28;20639;-67
2022/08/05 06:29:19;;;;;;;8.95;2.92;;;;;;;22.19;58.58;101485.75;5053346;28;20050;-67
2022/08/05 06:32:07;;;;;;;8.05;3.00;;;;;;;22.16;58.51;101483.59;5066194;28;20063;-68
2022/08/05 06:34:53;;;;;;;5.90;2.88;;;;;;;22.18;58.45;101488.78;5061599;28;20051;-67
2022/08/05 06:37:25;;;;;;;6.22;2.70;;;;;;;22.18;58.44;101497.00;5065556;28;20080;-67
2022/08/05 06:40:14;;;;;;;6.80;2.53;;;;;;;22.17;58.40;101501.66;5051382;28;20045;-67
2022/08/05 06:42:48;;;;;;;12.15;2.97;;;;;;;22.16;58.60;101513.69;5044404;28;20057;-67
2022/08/05 06:45:19;;;;;;;4.32;2.22;;;;;;;22.16;58.62;101516.44;5073372;28;20069;-67
2022/08/05 06:47:48;;;;;;;7.95;2.50;;;;;;;22.16;58.63;101518.34;5062802;28;20062;-68
2022/08/05 06:50:36;;;;;;;11.00;2.97;;;;;;;22.14;58.84;101524.13;5066791;28;20485;-68
2022/08/05 06:53:03;;;;;;;7.68;2.35;;;;;;;22.14;58.71;101528.78;5061899;28;20080;-68
2022/08/05 06:55:53;;;;;;;4.90;2.15;;;;;;;22.12;58.97;101528.25;5061415;28;20053;-67
2022/08/05 06:58:20;;;;;;;10.57;2.88;;;;;;;22.11;58.67;101532.06;5060354;28;20113;-67
2022/08/05 07:01:05;;;;;;;7.47;3.35;;;;;;;22.10;58.81;101535.91;5062609;28;20469;-65
2022/08/05 07:03:34;;;;;;;8.77;2.95;;;;;;;22.09;59.09;101532.34;5053860;28;20092;-65
2022/08/05 07:06:03;;;;;;;6.35;2.60;;;;;;;22.07;59.18;101538.13;5058815;28;20080;-65
2022/08/05 07:08:36;;;;;;;8.80;2.60;;;;;;;22.06;58.99;101538.41;5063613;28;20102;-64
2022/08/05 07:11:09;;;;;;;7.82;2.50;;;;;;;22.05;59.03;101539.50;5060741;28;20249;-64
2022/08/05 07:19:34;;;;;;;6.50;2.97;;;;;;;22.02;59.32;101540.88;5055278;28;20048;-65
2022/08/05 07:22:21;;;;;;;5.95;2.63;;;;;;;22.01;59.08;101550.16;5062506;28;20048;-65
2022/08/05 07:24:57;;;;;;;6.82;2.17;;;;;;;22.00;59.57;101559.47;5061285;28;20114;-65
2022/08/05 07:27:27;;;;;;;8.18;2.53;;;;;;;21.98;59.43;101569.88;5063692;28;20048;-64
2022/08/05 07:30:14;;;;;;;7.07;2.55;;;;;;;21.99;59.59;101565.22;5054738;28;20398;-65
2022/08/05 07:32:57;;;;;;;6.97;2.70;;;;;;;21.97;59.44;101573.72;5060139;28;20049;-65
2022/08/05 07:35:24;;;;;;;9.43;2.72;;;;;;;21.94;59.40;101570.72;5061134;28;20076;-65
2022/08/05 07:38:12;;;;;;;7.07;2.15;;;;;;;21.96;59.42;101577.56;5062185;28;20086;-65
2022/08/05 07:41:00;;;;;;;6.95;2.60;;;;;;;21.94;59.61;101587.16;5058765;28;20037;-65
2022/08/05 07:43:50;;;;;;;5.38;2.35;;;;;;;21.92;59.56;101584.69;5061335;28;20055;-65
2022/08/05 07:46:17;;;;;;;8.45;2.65;;;;;;;21.93;59.60;101589.06;5056298;28;20478;-65
2022/08/05 07:48:53;;;;;;;7.55;2.45;;;;;;;21.93;59.51;101589.06;5060749;28;20075;-64
2022/08/05 07:51:32;;;;;;;7.63;2.40;;;;;;;21.95;59.47;101583.31;5069094;28;20080;-65
2022/08/05 07:54:07;;;;;;;11.02;2.90;;;;;;;21.97;59.24;101589.31;5067350;28;20100;-64
2022/08/05 07:56:37;;;;;;;6.47;2.72;;;;;;;21.96;59.29;101588.50;5058026;28;20059;-65
2022/08/05 07:59:26;;;;;;;6.72;2.65;;;;;;;21.99;59.24;101600.81;5070571;28;20065;-67
2022/08/05 08:02:08;;;;;;;9.75;2.70;;;;;;;22.00;59.44;101599.72;5063489;28;20123;-66
2022/08/05 08:04:44;;;;;;;6.00;2.05;;;;;;;21.97;59.20;101584.66;5059165;28;20087;-65
2022/08/05 08:07:12;;;;;;;4.45;2.10;;;;;;;22.01;59.07;101599.44;5054962;28;20064;-65
2022/08/05 08:09:41;;;;;;;3.42;1.90;;;;;;;22.03;59.06;101604.66;5059866;28;20048;-65
2022/08/05 08:12:09;;;;;;;9.05;2.58;;;;;;;22.03;58.79;101604.66;5069041;28;20103;-65
2022/08/05 08:14:58;;;;;;;4.78;2.17;;;;;;;22.05;58.79;101610.69;5054524;28;20125;-66
2022/08/05 08:17:30;;;;;;;10.68;3.30;;;;;;;22.05;58.72;101614.22;5054774;28;20055;-65
2022/08/05 08:19:58;;;;;;;5.10;1.90;;;;;;;22.05;58.53;101616.16;5052904;28;20045;-64
2022/08/05 08:22:51;;;;;;;6.15;1.70;;;;;;;22.05;58.43;101614.22;5076072;28;20052;-64
2022/08/05 08:25:19;;;;;;;3.90;1.95;;;;;;;22.06;58.20;101620.53;5064419;28;20060;-64
2022/08/05 08:28:07;;;;;;;4.57;1.77;;;;;;;22.06;58.11;101626.00;5059704;28;20049;-64
2022/08/05 08:30:47;;;;;;;5.53;1.98;;;;;;;22.06;57.96;101620.53;5052573;28;20049;-64
2022/08/05 08:33:17;;;;;;;7.18;2.15;;;;;;;22.06;57.84;101632.28;5052546;28;20109;-66
2022/08/05 08:35:46;;;;;;;4.18;1.98;;;;;;;22.06;57.78;101632.28;5060144;28;20095;-64
2022/08/05 08:38:34;;;;;;;4.28;1.80;;;;;;;22.05;57.37;101630.66;5062009;28;20048;-64
2022/08/05 08:41:07;;;;;;;4.50;1.90;;;;;;;22.05;57.26;101635.31;5058800;28;20048;-65
2022/08/05 08:43:37;;;;;;;5.35;1.90;;;;;;;22.05;57.06;101638.88;5060765;28;20045;-65
2022/08/05 08:46:27;;;;;;;3.80;1.35;;;;;;;22.04;57.03;101647.38;5064194;28;20048;-65
2022/08/05 08:48:56;;;;;;;3.83;1.60;;;;;;;22.04;56.70;101653.66;5058844;28;20080;-65
2022/08/05 08:51:48;;;;;;;4.78;1.90;;;;;;;22.01;56.62;101650.63;5069607;28;20133;-63
2022/08/05 08:54:36;;;;;;;4.82;2.15;;;;;;;21.97;56.01;101660.50;5058860;28;20045;-63
2022/08/05 08:57:06;;;;;;;4.80;2.03;;;;;;;21.95;56.42;101668.97;5062477;28;20057;-65
2022/08/05 08:59:39;;;;;;;5.90;2.20;;;;;;;21.96;56.20;101669.81;5043421;28;20061;-63
2022/08/05 09:02:17;;;;;;;5.30;1.87;;;;;;;21.96;56.29;101675.28;5050086;28;20046;-64
2022/08/05 09:04:46;;;;;;;3.53;1.60;;;;;;;21.96;56.30;101676.09;5049297;28;20055;-63
2022/08/05 09:07:34;;;;;;;3.45;1.60;;;;;;;21.96;56.13;101675.28;5057204;28;20053;-63
2022/08/05 09:10:22;;;;;;;4.43;1.98;;;;;;;21.98;56.12;101679.38;5061815;28;20055;-63
2022/08/05 09:12:57;;;;;;;3.75;1.65;;;;;;;22.00;56.12;101679.09;5052158;28;20132;-63
2022/08/05 09:15:32;;;;;;;5.17;1.50;;;;;;;22.01;55.67;101684.28;5054918;28;20132;-64
2022/08/05 09:18:06;;;;;;;2.83;1.65;;;;;;;22.03;55.71;101684.88;5048464;28;20049;-63
2022/08/05 09:20:35;;;;;;;5.15;1.83;;;;;;;22.05;55.81;101690.88;5050454;28;20048;-63
2022/08/05 09:23:10;;;;;;;3.97;1.45;;;;;;;22.06;55.51;101689.78;5052034;28;20113;-63
2022/08/05 09:25:49;;;;;;;3.25;1.70;;;;;;;22.07;55.41;101693.34;5054093;28;20316;-63
2022/08/05 09:28:31;;;;;;;4.75;1.63;;;;;;;22.07;55.33;101694.16;5066171;28;20543;-63
2022/08/05 09:31:04;;;;;;;4.03;1.45;;;;;;;22.07;55.41;101702.38;5059290;28;20407;-63
2022/08/05 09:33:57;;;;;;;11.48;2.15;;;;;;;22.07;55.35;101699.63;5059607;28;20052;-63
2022/08/05 09:36:39;;;;;;;5.95;1.70;;;;;;;22.07;55.23;101699.63;5055786;28;20059;-63
2022/08/05 09:39:24;;;;;;;4.57;1.70;;;;;;;22.07;55.29;101699.63;5055764;28;20049;-64
2022/08/05 09:42:14;;;;;;;5.40;1.60;;;;;;;22.10;55.28;101700.19;5052119;28;20048;-63
2022/08/05 09:44:53;;;;;;;3.75;1.55;;;;;;;22.11;55.25;101699.91;5060910;28;20053;-67
2022/08/05 09:47:25;;;;;;;3.72;1.83;;;;;;;22.11;55.08;101708.13;5057114;28;20049;-65
2022/08/05 09:50:06;;;;;;;2.42;1.65;;;;;;;22.11;55.33;101705.38;5056444;28;20053;-65
2022/08/05 09:52:35;;;;;;;3.33;1.92;;;;;;;22.13;55.10;101713.31;5051974;28;20057;-65
2022/08/05 09:55:12;;;;;;;3.50;1.52;;;;;;;22.12;54.78;101703.47;5050628;28;20071;-65
2022/08/05 09:58:00;;;;;;;9.10;2.05;;;;;;;22.11;54.76;101719.06;5059879;28;20113;-65
2022/08/05 10:00:28;;;;;;;5.45;2.15;;;;;;;22.08;54.64;101720.44;5065728;28;20067;-65
2022/08/05 10:02:57;;;;;;;6.80;1.48;;;;;;;22.06;54.31;101716.34;5060756;28;20052;-64
2022/08/05 10:05:28;;;;;;;2.33;1.25;;;;;;;22.03;54.43;101725.13;5060686;28;20056;-64
2022/08/05 10:08:02;;;;;;;3.90;1.48;;;;;;;22.05;54.47;101717.44;5058936;28;20049;-65
2022/08/05 10:10:50;;;;;;;4.05;1.27;;;;;;;22.05;54.55;101715.53;5046875;28;20148;-64
2022/08/05 10:13:29;;;;;;;1.90;1.30;;;;;;;22.06;54.52;101725.38;5063205;28;20045;-65
2022/08/05 10:16:30;;;;;;;2.13;1.00;;;;;;;22.07;54.50;101721.53;5059320;28;20106;-64
2022/08/05 10:18:59;;;;;;;4.63;1.85;;;;;;;22.09;54.44;101721.25;5065913;28;20593;-64
2022/08/05 10:21:36;;;;;;;;;;;;;;;22.11;54.25;101715.50;5057759;28;20155;-65
2022/08/05 10:24:11;;;;;;;3.65;1.40;;;;;;;22.13;54.56;101725.09;5065886;28;20350;-62
2022/08/05 10:26:40;;;;;;;8.15;1.60;;;;;;;22.14;54.26;101723.16;5059345;28;20114;-62
2022/08/05 10:29:20;;;;;;;3.78;1.17;;;;;;;22.16;54.48;101720.97;5061730;28;20049;-63
2022/08/05 10:31:51;;;;;;;4.10;1.40;;;;;;;22.18;54.18;101727.00;5066343;28;20049;-62
2022/08/05 10:34:39;;;;;;;2.13;1.17;;;;;;;22.18;53.48;101729.72;5065678;28;20052;-62
2022/08/05 10:37:11;;;;;;;2.75;1.42;;;;;;;22.17;52.96;101737.13;5065427;28;20063;-62
2022/08/05 10:39:45;;;;;;;5.90;1.48;;;;;;;22.14;52.08;101734.94;5066574;28;20052;-62
2022/08/05 10:42:37;;;;;;;2.55;0.93;;;;;;;22.14;51.37;101745.06;5059478;28;20045;-62
2022/08/05 10:45:13;;;;;;;2.88;1.20;;;;;;;22.11;50.70;101738.22;5066225;28;20478;-62
2022/08/05 10:48:29;;;;;;;2.90;1.33;;;;;;;22.10;50.30;101744.00;5054825;28;20489;-62
2022/08/05 10:51:07;;;;;;;3.08;1.10;;;;;;;22.09;50.24;101745.91;5060013;28;20077;-62
2022/08/05 10:53:55;;;;;;;2.97;1.80;;;;;;;22.07;50.02;101748.91;5061130;28;20068;-62
2022/08/05 10:56:29;;;;;;;3.05;1.20;;;;;;;22.09;49.98;101745.91;5061537;28;20525;-62
2022/08/05 10:59:06;;;;;;;2.75;0.93;;;;;;;22.10;49.83;101750.28;5060893;28;20255;-62
2022/08/05 11:02:08;;;;;;;1.55;0.80;;;;;;;22.12;49.24;101752.75;5066636;28;20051;-63
2022/08/05 11:04:55;;;;;;;2.13;0.95;;;;;;;22.10;48.28;101753.03;5064981;28;20053;-63
2022/08/05 11:07:24;;;;;;;2.72;0.90;;;;;;;22.13;48.15;101755.22;5052963;28;20053;-63
2022/08/05 11:10:01;;;;;;;;;;;;;;;22.13;48.02;101759.84;5065583;28;20048;-63
2022/08/05 11:12:45;;;;;;;4.65;0.80;;;;;;;22.14;45.71;101769.72;5059551;28;19975;-63
2022/08/05 11:15:24;;;;;;;1.67;0.90;;;;;;;22.15;46.26;101763.16;5061017;28;20063;-63
2022/08/05 11:18:25;;;;;;;8.02;1.10;;;;;;;22.16;46.33;101768.34;5064867;28;20059;-63
2022/08/05 11:20:53;;;;;;;2.75;0.93;;;;;;;22.15;45.22;101757.66;5060061;28;20081;-63
2022/08/05 11:23:42;;;;;;;2.80;0.85;;;;;;;22.16;45.41;101762.88;5061781;28;20072;-64
2022/08/05 11:26:31;;;;;;;3.15;0.80;;;;;;;22.16;45.64;101757.38;5056878;28;20049;-63
2022/08/05 11:29:02;;;;;;;2.75;0.90;;;;;;;22.18;45.20;101770.81;5066104;28;20120;-64
2022/08/05 11:31:42;;;;;;;3.95;1.13;;;;;;;22.21;45.51;101767.50;5064648;28;20677;-64
2022/08/05 11:34:38;;;;;;;2.65;0.75;;;;;;;22.19;43.69;101770.53;5060580;28;20080;-64
2022/08/05 11:37:06;;;;;;;0.98;0.50;;;;;;;22.19;42.52;101770.53;5064194;28;20198;-64
2022/08/05 11:39:54;;;;;;;1.65;0.73;;;;;;;22.17;42.92;101771.91;5065373;28;20140;-64
2022/08/05 11:42:33;;;;;;;2.05;0.90;;;;;;;22.20;43.17;101785.03;5064480;28;20090;-63
2022/08/05 11:45:07;;;;;;;;;;;;;;;22.21;42.70;101770.25;5065205;28;20059;-62
2022/08/05 11:47:54;;;;;;;;;;;;;;;22.22;43.06;101782.84;5064417;28;19920;-62
2022/08/05 11:50:23;;;;;;;2.60;0.80;;;;;;;22.19;42.72;101786.97;5051826;28;19927;-63
2022/08/05 11:52:52;;;;;;;4.13;1.13;;;;;;;22.24;42.53;101783.38;5063195;28;20049;-63
2022/08/05 11:55:25;;;;;;;2.03;0.80;;;;;;;22.23;42.66;101782.56;5055970;28;20052;-63
2022/08/05 11:58:04;;;;;;;3.50;0.88;;;;;;;22.25;42.66;101794.06;5045328;28;20057;-63
2022/08/05 12:00:38;;;;;;;1.88;0.82;;;;;;;22.27;42.94;101791.06;5048858;28;20064;-63
2022/08/05 12:03:19;;;;;;;1.95;1.15;;;;;;;22.29;43.24;101794.34;5065156;28;20156;-63
2022/08/05 12:06:00;;;;;;;1.42;0.80;;;;;;;22.28;42.47;101804.47;5065161;28;20053;-63
2022/08/05 12:08:29;;;;;;;2.03;0.98;;;;;;;22.28;43.17;101809.13;5065497;28;20053;-63
2022/08/05 12:11:00;;;;;;;4.93;1.42;;;;;;;22.28;43.15;101820.06;5063308;28;20045;-63
2022/08/05 12:13:34;;;;;;;2.17;1.10;;;;;;;22.25;43.58;101810.50;5047430;28;20410;-63
2022/08/05 12:16:18;;;;;;;4.40;1.60;;;;;;;22.25;43.62;101829.66;5057108;28;20093;-63